sensor_id;sensor_type;location;lat;lon;timestamp;P1;durP1;ratioP1;P2;durP2;ratioP2
17648;SDS011;8943;51.110;-4.158;2022-08-19T00:01:55;8.77;;;1.73;;
17648;SDS011;8943;51.110;-4.158;2022-08-19T00:04:26;14.37;;;1.93;;
17648;SDS011;8943;51.110;-4.158;2022-08-19T00:06:56;11.60;;;2.43;;
17648;SDS011;8943;51.110;-4.158;2022-08-19T00:09:25;12.73;;;2.37;;
17648;SDS011;8943;51.110;-4.158;2022-08-19T00:11:54;16.00;;;2.43;;
17648;SDS011;8943;51.110;-4.158;2022-08-19T00:14:25;11.37;;;2.20;;
17648;SDS011;8943;51.110;-4.158;2022-08-19T00:16:58;17.07;;;2.00;;
17648;SDS011;8943;51.110;-4.158;2022-08-19T00:19:27;15.73;;;2.40;;
17648;SDS011;8943;51.110;-4.158;2022-08-19T00:21:56;14.97;;;2.47;;
17648;SDS011;8943;51.110;-4.158;2022-08-19T00:24:25;9.10;;;2.20;;
17648;SDS011;8943;51.110;-4.158;2022-08-19T00:26:55;11.50;;;1.90;;
17648;SDS011;8943;51.110;-4.158;2022-08-19T00:29:45;9.47;;;2.33;;
17648;SDS011;8943;51.110;-4.158;2022-08-19T00:32:18;11.73;;;1.90;;
17648;SDS011;8943;51.110;-4.158;2022-08-19T00:34:46;12.60;;;2.37;;
17648;SDS011;8943;51.110;-4.158;2022-08-19T00:37:15;12.67;;;1.60;;
17648;SDS011;8943;51.110;-4.158;2022-08-19T00:39:43;8.10;;;1.83;;
17648;SDS011;8943;51.110;-4.158;2022-08-19T00:42:14;11.80;;;1.70;;
17648;SDS011;8943;51.110;-4.158;2022-08-19T00:44:43;7.83;;;1.90;;
17648;SDS011;8943;51.110;-4.158;2022-08-19T00:47:12;10.43;;;2.10;;
17648;SDS011;8943;51.110;-4.158;2022-08-19T00:49:42;11.50;;;2.20;;
17648;SDS011;8943;51.110;-4.158;2022-08-19T00:52:18;12.37;;;2.43;;
17648;SDS011;8943;51.110;-4.158;2022-08-19T00:54:49;11.10;;;1.97;;
17648;SDS011;8943;51.110;-4.158;2022-08-19T00:57:22;5.73;;;1.33;;
17648;SDS011;8943;51.110;-4.158;2022-08-19T00:59:56;11.77;;;2.07;;
17648;SDS011;8943;51.110;-4.158;2022-08-19T01:02:29;8.80;;;2.00;;
17648;SDS011;8943;51.110;-4.158;2022-08-19T01:05:00;11.37;;;1.90;;
17648;SDS011;8943;51.110;-4.158;2022-08-19T01:07:32;14.70;;;2.40;;
17648;SDS011;8943;51.110;-4.158;2022-08-19T01:10:23;7.70;;;1.90;;
17648;SDS011;8943;51.110;-4.158;2022-08-19T01:12:59;9.70;;;1.73;;
17648;SDS011;8943;51.110;-4.158;2022-08-19T01:15:31;13.47;;;2.07;;
17648;SDS011;8943;51.110;-4.158;2022-08-19T01:18:09;12.77;;;2.40;;
17648;SDS011;8943;51.110;-4.158;2022-08-19T01:20:40;18.57;;;2.40;;
17648;SDS011;8943;51.110;-4.158;2022-08-19T01:23:13;8.70;;;2.13;;
17648;SDS011;8943;51.110;-4.158;2022-08-19T01:25:43;17.50;;;3.27;;
17648;SDS011;8943;51.110;-4.158;2022-08-19T01:28:20;23.80;;;4.13;;
17648;SDS011;8943;51.110;-4.158;2022-08-19T01:31:06;19.07;;;3.80;;
17648;SDS011;8943;51.110;-4.158;2022-08-19T01:33:34;20.47;;;3.33;;
17648;SDS011;8943;51.110;-4.158;2022-08-19T01:36:07;20.97;;;3.33;;
17648;SDS011;8943;51.110;-4.158;2022-08-19T01:38:42;19.23;;;3.13;;
17648;SDS011;8943;51.110;-4.158;2022-08-19T01:41:14;20.70;;;3.87;;
17648;SDS011;8943;51.110;-4.158;2022-08-19T01:43:47;16.77;;;3.70;;
17648;SDS011;8943;51.110;-4.158;2022-08-19T01:46:36;18.57;;;3.50;;
17648;SDS011;8943;51.110;-4.158;2022-08-19T01:49:04;23.60;;;3.90;;
17648;SDS011;8943;51.110;-4.158;2022-08-19T01:51:34;20.57;;;3.17;;
17648;SDS011;8943;51.110;-4.158;2022-08-19T01:54:06;14.63;;;3.33;;
17648;SDS011;8943;51.110;-4.158;2022-08-19T01:56:35;14.67;;;3.63;;
17648;SDS011;8943;51.110;-4.158;2022-08-19T01:59:03;18.47;;;3.80;;
17648;SDS011;8943;51.110;-4.158;2022-08-19T02:01:37;22.73;;;3.73;;
17648;SDS011;8943;51.110;-4.158;2022-08-19T02:04:06;18.03;;;4.23;;
17648;SDS011;8943;51.110;-4.158;2022-08-19T02:06:35;24.00;;;4.00;;
17648;SDS011;8943;51.110;-4.158;2022-08-19T02:09:04;21.53;;;4.70;;
17648;SDS011;8943;51.110;-4.158;2022-08-19T02:11:35;22.17;;;3.47;;
17648;SDS011;8943;51.110;-4.158;2022-08-19T02:14:05;20.17;;;3.93;;
17648;SDS011;8943;51.110;-4.158;2022-08-19T02:16:35;22.07;;;4.00;;
17648;SDS011;8943;51.110;-4.158;2022-08-19T02:19:04;19.23;;;4.23;;
17648;SDS011;8943;51.110;-4.158;2022-08-19T02:21:35;20.07;;;3.60;;
17648;SDS011;8943;51.110;-4.158;2022-08-19T02:24:03;23.27;;;4.13;;
17648;SDS011;8943;51.110;-4.158;2022-08-19T02:26:32;24.80;;;4.80;;
17648;SDS011;8943;51.110;-4.158;2022-08-19T02:29:10;22.67;;;3.70;;
17648;SDS011;8943;51.110;-4.158;2022-08-19T02:31:38;28.00;;;4.17;;
17648;SDS011;8943;51.110;-4.158;2022-08-19T02:34:06;22.40;;;5.57;;
17648;SDS011;8943;51.110;-4.158;2022-08-19T02:36:35;18.07;;;3.63;;
17648;SDS011;8943;51.110;-4.158;2022-08-19T02:39:08;26.77;;;4.47;;
17648;SDS011;8943;51.110;-4.158;2022-08-19T02:41:35;18.77;;;3.40;;
17648;SDS011;8943;51.110;-4.158;2022-08-19T02:44:05;20.83;;;4.00;;
17648;SDS011;8943;51.110;-4.158;2022-08-19T02:46:53;21.07;;;4.23;;
17648;SDS011;8943;51.110;-4.158;2022-08-19T02:49:21;21.27;;;3.80;;
17648;SDS011;8943;51.110;-4.158;2022-08-19T02:51:50;10.50;;;2.80;;
17648;SDS011;8943;51.110;-4.158;2022-08-19T02:54:19;14.10;;;3.53;;
17648;SDS011;8943;51.110;-4.158;2022-08-19T02:56:47;15.20;;;2.57;;
17648;SDS011;8943;51.110;-4.158;2022-08-19T02:59:17;14.90;;;2.73;;
17648;SDS011;8943;51.110;-4.158;2022-08-19T03:01:48;12.03;;;2.50;;
17648;SDS011;8943;51.110;-4.158;2022-08-19T03:04:16;11.10;;;2.63;;
17648;SDS011;8943;51.110;-4.158;2022-08-19T03:06:45;16.37;;;2.73;;
17648;SDS011;8943;51.110;-4.158;2022-08-19T03:09:15;12.97;;;2.97;;
17648;SDS011;8943;51.110;-4.158;2022-08-19T03:11:46;15.97;;;2.80;;
17648;SDS011;8943;51.110;-4.158;2022-08-19T03:14:19;17.17;;;2.97;;
17648;SDS011;8943;51.110;-4.158;2022-08-19T03:16:49;12.13;;;2.90;;
17648;SDS011;8943;51.110;-4.158;2022-08-19T03:19:20;15.63;;;3.07;;
17648;SDS011;8943;51.110;-4.158;2022-08-19T03:21:48;18.50;;;2.70;;
17648;SDS011;8943;51.110;-4.158;2022-08-19T03:24:18;12.77;;;2.80;;
17648;SDS011;8943;51.110;-4.158;2022-08-19T03:26:48;10.70;;;2.27;;
17648;SDS011;8943;51.110;-4.158;2022-08-19T03:29:23;12.90;;;2.53;;
17648;SDS011;8943;51.110;-4.158;2022-08-19T03:34:58;9.57;;;3.00;;
17648;SDS011;8943;51.110;-4.158;2022-08-19T03:37:27;11.27;;;2.80;;
17648;SDS011;8943;51.110;-4.158;2022-08-19T03:39:58;14.03;;;2.70;;
17648;SDS011;8943;51.110;-4.158;2022-08-19T03:42:35;14.10;;;3.20;;
17648;SDS011;8943;51.110;-4.158;2022-08-19T03:45:19;14.73;;;2.50;;
17648;SDS011;8943;51.110;-4.158;2022-08-19T03:47:47;11.83;;;2.93;;
17648;SDS011;8943;51.110;-4.158;2022-08-19T03:50:18;12.87;;;2.20;;
17648;SDS011;8943;51.110;-4.158;2022-08-19T03:52:48;13.50;;;2.97;;
17648;SDS011;8943;51.110;-4.158;2022-08-19T03:55:38;11.93;;;2.07;;
17648;SDS011;8943;51.110;-4.158;2022-08-19T04:01:06;9.30;;;2.73;;
17648;SDS011;8943;51.110;-4.158;2022-08-19T04:03:35;18.87;;;2.90;;
17648;SDS011;8943;51.110;-4.158;2022-08-19T04:06:09;12.27;;;2.60;;
17648;SDS011;8943;51.110;-4.158;2022-08-19T04:08:39;12.23;;;2.87;;
17648;SDS011;8943;51.110;-4.158;2022-08-19T04:11:08;12.83;;;1.90;;
17648;SDS011;8943;51.110;-4.158;2022-08-19T04:13:37;16.60;;;3.10;;
17648;SDS011;8943;51.110;-4.158;2022-08-19T04:16:07;15.07;;;2.70;;
17648;SDS011;8943;51.110;-4.158;2022-08-19T04:18:45;15.87;;;2.40;;
17648;SDS011;8943;51.110;-4.158;2022-08-19T04:21:16;13.50;;;2.37;;
17648;SDS011;8943;51.110;-4.158;2022-08-19T04:23:47;11.23;;;2.63;;
17648;SDS011;8943;51.110;-4.158;2022-08-19T04:26:18;11.37;;;2.50;;
17648;SDS011;8943;51.110;-4.158;2022-08-19T04:28:48;8.13;;;2.20;;
17648;SDS011;8943;51.110;-4.158;2022-08-19T04:31:19;10.63;;;2.67;;
17648;SDS011;8943;51.110;-4.158;2022-08-19T04:33:52;18.60;;;2.87;;
17648;SDS011;8943;51.110;-4.158;2022-08-19T04:36:23;11.43;;;2.53;;
17648;SDS011;8943;51.110;-4.158;2022-08-19T04:38:54;12.53;;;2.93;;
17648;SDS011;8943;51.110;-4.158;2022-08-19T04:41:26;13.40;;;2.50;;
17648;SDS011;8943;51.110;-4.158;2022-08-19T04:44:12;10.43;;;2.30;;
17648;SDS011;8943;51.110;-4.158;2022-08-19T04:46:46;10.93;;;2.80;;
17648;SDS011;8943;51.110;-4.158;2022-08-19T04:49:18;9.57;;;2.50;;
17648;SDS011;8943;51.110;-4.158;2022-08-19T04:54:43;11.27;;;2.13;;
17648;SDS011;8943;51.110;-4.158;2022-08-19T04:57:12;11.20;;;2.37;;
17648;SDS011;8943;51.110;-4.158;2022-08-19T04:59:40;14.87;;;2.23;;
17648;SDS011;8943;51.110;-4.158;2022-08-19T05:02:10;12.23;;;2.23;;
17648;SDS011;8943;51.110;-4.158;2022-08-19T05:04:38;10.53;;;2.47;;
17648;SDS011;8943;51.110;-4.158;2022-08-19T05:07:06;12.80;;;2.60;;
17648;SDS011;8943;51.110;-4.158;2022-08-19T05:09:36;15.60;;;2.50;;
17648;SDS011;8943;51.110;-4.158;2022-08-19T05:12:23;7.33;;;1.77;;
17648;SDS011;8943;51.110;-4.158;2022-08-19T05:14:54;11.17;;;2.40;;
17648;SDS011;8943;51.110;-4.158;2022-08-19T05:17:26;6.70;;;1.90;;
17648;SDS011;8943;51.110;-4.158;2022-08-19T05:20:00;11.10;;;3.20;;
17648;SDS011;8943;51.110;-4.158;2022-08-19T05:22:46;10.00;;;2.43;;
17648;SDS011;8943;51.110;-4.158;2022-08-19T05:25:16;8.17;;;2.10;;
17648;SDS011;8943;51.110;-4.158;2022-08-19T05:27:47;7.30;;;1.83;;
17648;SDS011;8943;51.110;-4.158;2022-08-19T05:30:16;10.50;;;2.30;;
17648;SDS011;8943;51.110;-4.158;2022-08-19T05:33:07;9.80;;;1.90;;
17648;SDS011;8943;51.110;-4.158;2022-08-19T05:35:36;9.27;;;2.30;;
17648;SDS011;8943;51.110;-4.158;2022-08-19T05:38:05;8.00;;;2.00;;
17648;SDS011;8943;51.110;-4.158;2022-08-19T05:40:34;7.67;;;1.97;;
17648;SDS011;8943;51.110;-4.158;2022-08-19T05:43:03;8.50;;;1.60;;
17648;SDS011;8943;51.110;-4.158;2022-08-19T05:45:32;13.07;;;2.57;;
17648;SDS011;8943;51.110;-4.158;2022-08-19T05:48:10;8.60;;;2.17;;
17648;SDS011;8943;51.110;-4.158;2022-08-19T05:50:39;10.63;;;1.90;;
17648;SDS011;8943;51.110;-4.158;2022-08-19T05:53:08;5.03;;;1.60;;
17648;SDS011;8943;51.110;-4.158;2022-08-19T05:55:37;10.13;;;2.43;;
17648;SDS011;8943;51.110;-4.158;2022-08-19T05:58:06;10.83;;;2.20;;
17648;SDS011;8943;51.110;-4.158;2022-08-19T06:00:34;6.00;;;2.10;;
17648;SDS011;8943;51.110;-4.158;2022-08-19T06:03:03;10.27;;;2.20;;
17648;SDS011;8943;51.110;-4.158;2022-08-19T06:05:40;6.70;;;2.00;;
17648;SDS011;8943;51.110;-4.158;2022-08-19T06:08:17;9.87;;;2.27;;
17648;SDS011;8943;51.110;-4.158;2022-08-19T06:10:58;7.60;;;2.40;;
17648;SDS011;8943;51.110;-4.158;2022-08-19T06:13:41;9.00;;;2.33;;
17648;SDS011;8943;51.110;-4.158;2022-08-19T06:16:09;9.60;;;2.33;;
17648;SDS011;8943;51.110;-4.158;2022-08-19T06:18:37;10.10;;;2.40;;
17648;SDS011;8943;51.110;-4.158;2022-08-19T06:21:07;9.73;;;2.50;;
17648;SDS011;8943;51.110;-4.158;2022-08-19T06:23:35;10.57;;;2.63;;
17648;SDS011;8943;51.110;-4.158;2022-08-19T06:26:03;9.23;;;2.20;;
17648;SDS011;8943;51.110;-4.158;2022-08-19T06:28:31;12.63;;;2.53;;
17648;SDS011;8943;51.110;-4.158;2022-08-19T06:31:05;10.33;;;2.17;;
17648;SDS011;8943;51.110;-4.158;2022-08-19T06:33:34;13.40;;;3.03;;
17648;SDS011;8943;51.110;-4.158;2022-08-19T06:36:02;7.03;;;1.90;;
17648;SDS011;8943;51.110;-4.158;2022-08-19T06:38:32;7.37;;;1.60;;
17648;SDS011;8943;51.110;-4.158;2022-08-19T06:41:01;15.23;;;2.40;;
17648;SDS011;8943;51.110;-4.158;2022-08-19T06:43:33;8.87;;;1.90;;
17648;SDS011;8943;51.110;-4.158;2022-08-19T06:46:09;9.80;;;2.20;;
17648;SDS011;8943;51.110;-4.158;2022-08-19T06:48:40;7.83;;;2.60;;
17648;SDS011;8943;51.110;-4.158;2022-08-19T06:51:11;10.17;;;2.50;;
17648;SDS011;8943;51.110;-4.158;2022-08-19T06:53:46;8.13;;;2.33;;
17648;SDS011;8943;51.110;-4.158;2022-08-19T06:56:15;8.33;;;2.20;;
17648;SDS011;8943;51.110;-4.158;2022-08-19T06:58:45;12.43;;;2.07;;
17648;SDS011;8943;51.110;-4.158;2022-08-19T07:01:14;10.10;;;1.70;;
17648;SDS011;8943;51.110;-4.158;2022-08-19T07:03:42;8.93;;;2.27;;
17648;SDS011;8943;51.110;-4.158;2022-08-19T07:06:11;11.00;;;2.10;;
17648;SDS011;8943;51.110;-4.158;2022-08-19T07:09:05;9.03;;;1.83;;
17648;SDS011;8943;51.110;-4.158;2022-08-19T07:11:34;8.63;;;2.23;;
17648;SDS011;8943;51.110;-4.158;2022-08-19T07:14:02;8.57;;;2.10;;
17648;SDS011;8943;51.110;-4.158;2022-08-19T07:16:44;8.03;;;2.43;;
17648;SDS011;8943;51.110;-4.158;2022-08-19T07:19:13;8.63;;;2.10;;
17648;SDS011;8943;51.110;-4.158;2022-08-19T07:21:46;10.53;;;2.27;;
17648;SDS011;8943;51.110;-4.158;2022-08-19T07:24:17;11.13;;;2.83;;
17648;SDS011;8943;51.110;-4.158;2022-08-19T07:26:45;11.53;;;2.63;;
17648;SDS011;8943;51.110;-4.158;2022-08-19T07:29:18;10.03;;;2.53;;
17648;SDS011;8943;51.110;-4.158;2022-08-19T07:31:53;9.27;;;2.50;;
17648;SDS011;8943;51.110;-4.158;2022-08-19T07:34:26;13.23;;;2.80;;
17648;SDS011;8943;51.110;-4.158;2022-08-19T07:36:56;16.93;;;3.10;;
17648;SDS011;8943;51.110;-4.158;2022-08-19T07:39:27;7.03;;;2.20;;
17648;SDS011;8943;51.110;-4.158;2022-08-19T07:41:59;9.53;;;2.77;;
17648;SDS011;8943;51.110;-4.158;2022-08-19T07:44:28;7.10;;;2.03;;
17648;SDS011;8943;51.110;-4.158;2022-08-19T07:46:56;9.97;;;2.40;;
17648;SDS011;8943;51.110;-4.158;2022-08-19T07:49:26;10.30;;;2.37;;
17648;SDS011;8943;51.110;-4.158;2022-08-19T07:51:55;8.10;;;2.27;;
17648;SDS011;8943;51.110;-4.158;2022-08-19T07:54:30;14.13;;;2.63;;
17648;SDS011;8943;51.110;-4.158;2022-08-19T07:57:00;13.60;;;3.17;;
17648;SDS011;8943;51.110;-4.158;2022-08-19T07:59:29;10.90;;;2.57;;
17648;SDS011;8943;51.110;-4.158;2022-08-19T08:01:58;12.63;;;2.40;;
17648;SDS011;8943;51.110;-4.158;2022-08-19T08:04:27;6.93;;;1.73;;
17648;SDS011;8943;51.110;-4.158;2022-08-19T08:07:13;9.83;;;2.20;;
17648;SDS011;8943;51.110;-4.158;2022-08-19T08:10:02;16.33;;;2.67;;
17648;SDS011;8943;51.110;-4.158;2022-08-19T08:12:39;11.17;;;2.40;;
17648;SDS011;8943;51.110;-4.158;2022-08-19T08:15:23;15.47;;;3.33;;
17648;SDS011;8943;51.110;-4.158;2022-08-19T08:17:51;13.20;;;2.20;;
17648;SDS011;8943;51.110;-4.158;2022-08-19T08:20:19;11.37;;;3.10;;
17648;SDS011;8943;51.110;-4.158;2022-08-19T08:22:47;12.17;;;2.57;;
17648;SDS011;8943;51.110;-4.158;2022-08-19T08:25:35;12.80;;;2.47;;
17648;SDS011;8943;51.110;-4.158;2022-08-19T08:28:04;8.73;;;2.57;;
17648;SDS011;8943;51.110;-4.158;2022-08-19T08:30:36;8.77;;;2.27;;
17648;SDS011;8943;51.110;-4.158;2022-08-19T08:33:10;9.67;;;2.50;;
17648;SDS011;8943;51.110;-4.158;2022-08-19T08:35:39;13.63;;;3.10;;
17648;SDS011;8943;51.110;-4.158;2022-08-19T08:38:09;15.83;;;3.20;;
17648;SDS011;8943;51.110;-4.158;2022-08-19T08:40:39;10.10;;;2.37;;
17648;SDS011;8943;51.110;-4.158;2022-08-19T08:43:21;10.37;;;3.03;;
17648;SDS011;8943;51.110;-4.158;2022-08-19T08:45:59;13.43;;;2.57;;
17648;SDS011;8943;51.110;-4.158;2022-08-19T08:48:34;15.87;;;2.80;;
17648;SDS011;8943;51.110;-4.158;2022-08-19T08:51:09;10.30;;;2.10;;
17648;SDS011;8943;51.110;-4.158;2022-08-19T08:53:45;12.57;;;2.90;;
17648;SDS011;8943;51.110;-4.158;2022-08-19T08:56:22;12.53;;;2.23;;
17648;SDS011;8943;51.110;-4.158;2022-08-19T08:58:54;11.27;;;2.83;;
17648;SDS011;8943;51.110;-4.158;2022-08-19T09:01:27;15.17;;;2.60;;
17648;SDS011;8943;51.110;-4.158;2022-08-19T09:03:56;13.23;;;2.97;;
17648;SDS011;8943;51.110;-4.158;2022-08-19T09:06:31;15.93;;;2.73;;
17648;SDS011;8943;51.110;-4.158;2022-08-19T09:09:10;12.20;;;2.83;;
17648;SDS011;8943;51.110;-4.158;2022-08-19T09:11:54;21.23;;;3.03;;
17648;SDS011;8943;51.110;-4.158;2022-08-19T09:14:34;15.47;;;3.33;;
17648;SDS011;8943;51.110;-4.158;2022-08-19T09:17:17;15.63;;;3.13;;
17648;SDS011;8943;51.110;-4.158;2022-08-19T09:19:48;20.20;;;2.90;;
17648;SDS011;8943;51.110;-4.158;2022-08-19T09:22:18;11.93;;;3.40;;
17648;SDS011;8943;51.110;-4.158;2022-08-19T09:24:53;10.93;;;2.37;;
17648;SDS011;8943;51.110;-4.158;2022-08-19T09:27:26;13.97;;;2.83;;
17648;SDS011;8943;51.110;-4.158;2022-08-19T09:30:12;10.93;;;2.70;;
17648;SDS011;8943;51.110;-4.158;2022-08-19T09:32:44;10.40;;;2.97;;
17648;SDS011;8943;51.110;-4.158;2022-08-19T09:35:18;13.67;;;2.73;;
17648;SDS011;8943;51.110;-4.158;2022-08-19T09:37:49;16.73;;;2.70;;
17648;SDS011;8943;51.110;-4.158;2022-08-19T09:40:25;11.43;;;2.33;;
17648;SDS011;8943;51.110;-4.158;2022-08-19T09:42:57;16.37;;;3.50;;
17648;SDS011;8943;51.110;-4.158;2022-08-19T09:45:38;13.70;;;3.23;;
17648;SDS011;8943;51.110;-4.158;2022-08-19T09:48:06;11.77;;;3.03;;
17648;SDS011;8943;51.110;-4.158;2022-08-19T09:50:37;15.37;;;3.37;;
17648;SDS011;8943;51.110;-4.158;2022-08-19T09:53:19;12.27;;;2.40;;
17648;SDS011;8943;51.110;-4.158;2022-08-19T09:55:51;8.10;;;2.47;;
17648;SDS011;8943;51.110;-4.158;2022-08-19T09:58:20;10.23;;;2.97;;
17648;SDS011;8943;51.110;-4.158;2022-08-19T10:00:54;16.33;;;2.80;;
17648;SDS011;8943;51.110;-4.158;2022-08-19T10:03:22;11.53;;;2.30;;
17648;SDS011;8943;51.110;-4.158;2022-08-19T10:05:56;11.63;;;3.03;;
17648;SDS011;8943;51.110;-4.158;2022-08-19T10:08:26;11.83;;;3.00;;
17648;SDS011;8943;51.110;-4.158;2022-08-19T10:10:56;10.60;;;2.57;;
17648;SDS011;8943;51.110;-4.158;2022-08-19T10:13:46;10.17;;;2.40;;
17648;SDS011;8943;51.110;-4.158;2022-08-19T10:16:16;12.17;;;2.37;;
17648;SDS011;8943;51.110;-4.158;2022-08-19T10:18:46;12.53;;;3.30;;
17648;SDS011;8943;51.110;-4.158;2022-08-19T10:21:15;11.40;;;2.60;;
17648;SDS011;8943;51.110;-4.158;2022-08-19T10:23:46;16.23;;;3.60;;
17648;SDS011;8943;51.110;-4.158;2022-08-19T10:26:18;15.73;;;3.10;;
17648;SDS011;8943;51.110;-4.158;2022-08-19T10:28:53;10.07;;;2.30;;
17648;SDS011;8943;51.110;-4.158;2022-08-19T10:31:24;12.83;;;2.70;;
17648;SDS011;8943;51.110;-4.158;2022-08-19T10:34:14;13.77;;;2.47;;
17648;SDS011;8943;51.110;-4.158;2022-08-19T10:36:53;11.47;;;2.40;;
17648;SDS011;8943;51.110;-4.158;2022-08-19T10:39:26;17.77;;;2.97;;
17648;SDS011;8943;51.110;-4.158;2022-08-19T10:41:57;13.53;;;2.27;;
17648;SDS011;8943;51.110;-4.158;2022-08-19T10:44:27;11.93;;;2.60;;
17648;SDS011;8943;51.110;-4.158;2022-08-19T10:46:58;18.53;;;3.77;;
17648;SDS011;8943;51.110;-4.158;2022-08-19T10:49:27;14.87;;;3.03;;
17648;SDS011;8943;51.110;-4.158;2022-08-19T10:51:55;14.97;;;2.77;;
17648;SDS011;8943;51.110;-4.158;2022-08-19T10:54:44;12.53;;;2.60;;
17648;SDS011;8943;51.110;-4.158;2022-08-19T10:57:34;13.47;;;2.63;;
17648;SDS011;8943;51.110;-4.158;2022-08-19T11:00:24;11.03;;;2.60;;
17648;SDS011;8943;51.110;-4.158;2022-08-19T11:02:52;11.43;;;2.73;;
17648;SDS011;8943;51.110;-4.158;2022-08-19T11:05:22;13.93;;;3.07;;
17648;SDS011;8943;51.110;-4.158;2022-08-19T11:07:50;17.43;;;3.27;;
17648;SDS011;8943;51.110;-4.158;2022-08-19T11:10:19;13.20;;;2.87;;
17648;SDS011;8943;51.110;-4.158;2022-08-19T11:12:48;10.70;;;2.73;;
17648;SDS011;8943;51.110;-4.158;2022-08-19T11:15:20;16.43;;;3.03;;
17648;SDS011;8943;51.110;-4.158;2022-08-19T11:17:52;18.97;;;3.50;;
17648;SDS011;8943;51.110;-4.158;2022-08-19T11:20:20;19.47;;;3.50;;
17648;SDS011;8943;51.110;-4.158;2022-08-19T11:22:50;14.70;;;3.00;;
17648;SDS011;8943;51.110;-4.158;2022-08-19T11:25:20;14.83;;;3.23;;
17648;SDS011;8943;51.110;-4.158;2022-08-19T11:27:48;17.87;;;3.50;;
17648;SDS011;8943;51.110;-4.158;2022-08-19T11:30:18;13.83;;;2.47;;
17648;SDS011;8943;51.110;-4.158;2022-08-19T11:32:47;15.90;;;2.93;;
17648;SDS011;8943;51.110;-4.158;2022-08-19T11:35:17;18.87;;;3.03;;
17648;SDS011;8943;51.110;-4.158;2022-08-19T11:37:45;11.50;;;2.30;;
17648;SDS011;8943;51.110;-4.158;2022-08-19T11:40:14;17.57;;;2.53;;
17648;SDS011;8943;51.110;-4.158;2022-08-19T11:42:42;11.93;;;2.00;;
17648;SDS011;8943;51.110;-4.158;2022-08-19T11:45:23;8.80;;;2.47;;
17648;SDS011;8943;51.110;-4.158;2022-08-19T11:47:52;9.00;;;1.80;;
17648;SDS011;8943;51.110;-4.158;2022-08-19T11:50:22;6.43;;;1.63;;
17648;SDS011;8943;51.110;-4.158;2022-08-19T11:52:53;9.47;;;2.63;;
17648;SDS011;8943;51.110;-4.158;2022-08-19T11:55:22;11.47;;;1.70;;
17648;SDS011;8943;51.110;-4.158;2022-08-19T11:57:50;12.07;;;2.53;;
17648;SDS011;8943;51.110;-4.158;2022-08-19T12:00:19;15.17;;;2.67;;
17648;SDS011;8943;51.110;-4.158;2022-08-19T12:02:47;17.83;;;2.90;;
17648;SDS011;8943;51.110;-4.158;2022-08-19T12:05:16;14.40;;;3.00;;
17648;SDS011;8943;51.110;-4.158;2022-08-19T12:07:45;15.27;;;2.70;;
17648;SDS011;8943;51.110;-4.158;2022-08-19T12:10:14;11.53;;;2.67;;
17648;SDS011;8943;51.110;-4.158;2022-08-19T12:12:45;12.53;;;2.50;;
17648;SDS011;8943;51.110;-4.158;2022-08-19T12:15:24;6.90;;;2.13;;
17648;SDS011;8943;51.110;-4.158;2022-08-19T12:18:03;11.97;;;2.37;;
17648;SDS011;8943;51.110;-4.158;2022-08-19T12:20:33;18.43;;;2.87;;
17648;SDS011;8943;51.110;-4.158;2022-08-19T12:23:04;9.80;;;2.23;;
17648;SDS011;8943;51.110;-4.158;2022-08-19T12:25:33;9.17;;;2.77;;
17648;SDS011;8943;51.110;-4.158;2022-08-19T12:28:01;10.70;;;2.10;;
17648;SDS011;8943;51.110;-4.158;2022-08-19T12:30:30;11.90;;;2.03;;
17648;SDS011;8943;51.110;-4.158;2022-08-19T12:32:58;9.87;;;2.23;;
17648;SDS011;8943;51.110;-4.158;2022-08-19T12:35:26;8.37;;;1.90;;
17648;SDS011;8943;51.110;-4.158;2022-08-19T12:37:56;11.33;;;2.20;;
17648;SDS011;8943;51.110;-4.158;2022-08-19T12:40:27;9.70;;;2.00;;
17648;SDS011;8943;51.110;-4.158;2022-08-19T12:42:56;6.10;;;2.10;;
17648;SDS011;8943;51.110;-4.158;2022-08-19T12:45:25;8.17;;;1.57;;
17648;SDS011;8943;51.110;-4.158;2022-08-19T12:47:53;12.27;;;2.80;;
17648;SDS011;8943;51.110;-4.158;2022-08-19T12:50:21;5.10;;;1.43;;
17648;SDS011;8943;51.110;-4.158;2022-08-19T12:52:50;7.10;;;1.50;;
17648;SDS011;8943;51.110;-4.158;2022-08-19T12:55:18;4.97;;;1.50;;
17648;SDS011;8943;51.110;-4.158;2022-08-19T12:57:48;9.30;;;1.70;;
17648;SDS011;8943;51.110;-4.158;2022-08-19T13:00:17;7.30;;;1.60;;
17648;SDS011;8943;51.110;-4.158;2022-08-19T13:02:47;5.33;;;1.23;;
17648;SDS011;8943;51.110;-4.158;2022-08-19T13:05:19;6.47;;;1.10;;
17648;SDS011;8943;51.110;-4.158;2022-08-19T13:07:50;4.40;;;0.90;;
17648;SDS011;8943;51.110;-4.158;2022-08-19T13:10:22;2.67;;;1.00;;
17648;SDS011;8943;51.110;-4.158;2022-08-19T13:12:54;4.37;;;0.90;;
17648;SDS011;8943;51.110;-4.158;2022-08-19T13:15:23;6.80;;;1.00;;
17648;SDS011;8943;51.110;-4.158;2022-08-19T13:17:51;3.90;;;1.53;;
17648;SDS011;8943;51.110;-4.158;2022-08-19T13:20:22;3.73;;;0.93;;
17648;SDS011;8943;51.110;-4.158;2022-08-19T13:22:51;5.33;;;0.83;;
17648;SDS011;8943;51.110;-4.158;2022-08-19T13:25:19;5.70;;;1.17;;
17648;SDS011;8943;51.110;-4.158;2022-08-19T13:28:03;5.87;;;1.10;;
17648;SDS011;8943;51.110;-4.158;2022-08-19T13:30:38;6.03;;;1.20;;
17648;SDS011;8943;51.110;-4.158;2022-08-19T13:33:28;4.03;;;1.00;;
17648;SDS011;8943;51.110;-4.158;2022-08-19T13:36:02;7.97;;;1.33;;
17648;SDS011;8943;51.110;-4.158;2022-08-19T13:38:34;10.50;;;1.43;;
17648;SDS011;8943;51.110;-4.158;2022-08-19T13:41:04;4.53;;;1.50;;
17648;SDS011;8943;51.110;-4.158;2022-08-19T13:43:41;8.03;;;1.70;;
17648;SDS011;8943;51.110;-4.158;2022-08-19T13:46:10;9.43;;;1.33;;
17648;SDS011;8943;51.110;-4.158;2022-08-19T13:48:40;5.30;;;1.20;;
17648;SDS011;8943;51.110;-4.158;2022-08-19T13:51:11;3.63;;;1.13;;
17648;SDS011;8943;51.110;-4.158;2022-08-19T13:53:40;4.93;;;1.80;;
17648;SDS011;8943;51.110;-4.158;2022-08-19T13:56:13;6.90;;;1.87;;
17648;SDS011;8943;51.110;-4.158;2022-08-19T13:58:49;7.73;;;1.43;;
17648;SDS011;8943;51.110;-4.158;2022-08-19T14:01:21;5.27;;;1.57;;
17648;SDS011;8943;51.110;-4.158;2022-08-19T14:03:50;3.53;;;1.23;;
17648;SDS011;8943;51.110;-4.158;2022-08-19T14:06:19;7.03;;;1.90;;
17648;SDS011;8943;51.110;-4.158;2022-08-19T14:08:47;4.73;;;1.63;;
17648;SDS011;8943;51.110;-4.158;2022-08-19T14:11:16;6.45;;;1.63;;
17648;SDS011;8943;51.110;-4.158;2022-08-19T14:13:44;7.93;;;1.42;;
17648;SDS011;8943;51.110;-4.158;2022-08-19T14:16:14;7.43;;;1.42;;
17648;SDS011;8943;51.110;-4.158;2022-08-19T14:18:42;5.68;;;1.38;;
17648;SDS011;8943;51.110;-4.158;2022-08-19T14:21:14;6.60;;;1.35;;
17648;SDS011;8943;51.110;-4.158;2022-08-19T14:23:47;4.07;;;1.55;;
17648;SDS011;8943;51.110;-4.158;2022-08-19T14:26:16;4.40;;;1.75;;
17648;SDS011;8943;51.110;-4.158;2022-08-19T14:28:47;6.80;;;2.30;;
17648;SDS011;8943;51.110;-4.158;2022-08-19T14:31:18;5.20;;;1.33;;
17648;SDS011;8943;51.110;-4.158;2022-08-19T14:33:56;7.53;;;1.52;;
17648;SDS011;8943;51.110;-4.158;2022-08-19T14:36:24;4.35;;;1.20;;
17648;SDS011;8943;51.110;-4.158;2022-08-19T14:38:53;8.48;;;1.70;;
17648;SDS011;8943;51.110;-4.158;2022-08-19T14:41:22;4.95;;;1.35;;
17648;SDS011;8943;51.110;-4.158;2022-08-19T14:43:51;6.03;;;1.33;;
17648;SDS011;8943;51.110;-4.158;2022-08-19T14:46:23;5.28;;;1.52;;
17648;SDS011;8943;51.110;-4.158;2022-08-19T14:48:55;7.03;;;1.70;;
17648;SDS011;8943;51.110;-4.158;2022-08-19T14:51:25;8.02;;;2.22;;
17648;SDS011;8943;51.110;-4.158;2022-08-19T14:53:54;11.93;;;2.08;;
17648;SDS011;8943;51.110;-4.158;2022-08-19T14:56:23;5.82;;;1.55;;
17648;SDS011;8943;51.110;-4.158;2022-08-19T14:58:53;7.18;;;1.50;;
17648;SDS011;8943;51.110;-4.158;2022-08-19T15:01:27;6.07;;;1.42;;
17648;SDS011;8943;51.110;-4.158;2022-08-19T15:03:56;8.45;;;1.98;;
17648;SDS011;8943;51.110;-4.158;2022-08-19T15:06:24;5.63;;;1.58;;
17648;SDS011;8943;51.110;-4.158;2022-08-19T15:08:52;7.47;;;1.67;;
17648;SDS011;8943;51.110;-4.158;2022-08-19T15:11:26;8.38;;;1.60;;
17648;SDS011;8943;51.110;-4.158;2022-08-19T15:13:55;7.63;;;1.88;;
17648;SDS011;8943;51.110;-4.158;2022-08-19T15:16:24;6.70;;;1.98;;